createdAt,value
2018-11-05T06:02:07.932Z,10.90
2018-11-05T06:04:37.169Z,10.90
2018-11-05T06:07:06.744Z,10.90
2018-11-05T06:09:36.240Z,10.90
2018-11-05T06:12:05.761Z,11.00
2018-11-05T06:14:35.720Z,11.00
2018-11-05T06:17:05.278Z,11.00
2018-11-05T06:19:35.272Z,11.00
2018-11-05T06:22:04.684Z,11.00
2018-11-05T06:24:34.765Z,11.00
2018-11-05T06:27:04.517Z,11.00
2018-11-05T06:29:33.814Z,11.00
2018-11-05T06:32:03.297Z,11.00
2018-11-05T06:34:33.977Z,11.10
2018-11-05T06:37:03.219Z,11.10
2018-11-05T06:39:32.853Z,11.10
2018-11-05T06:42:03.216Z,11.10
2018-11-05T06:44:34.401Z,11.10
2018-11-05T06:47:03.999Z,11.10
2018-11-05T06:50:09.227Z,11.10
2018-11-05T06:52:42.268Z,11.10
2018-11-05T06:55:17.841Z,11.20
2018-11-05T06:57:49.726Z,11.10
2018-11-05T07:00:30.195Z,11.10
2018-11-05T07:03:07.839Z,11.10
2018-11-05T07:05:44.209Z,11.10
2018-11-05T07:08:16.218Z,11.10
2018-11-05T07:10:47.168Z,11.10
2018-11-05T07:13:18.556Z,11.10
2018-11-05T07:15:48.303Z,11.10
2018-11-05T07:18:17.751Z,11.10
2018-11-05T07:20:47.958Z,11.10
2018-11-05T07:23:18.127Z,11.10
2018-11-05T07:25:47.897Z,11.10
2018-11-05T07:28:18.723Z,11.10
2018-11-05T07:30:48.251Z,11.10
2018-11-05T07:33:18.720Z,11.10
2018-11-05T07:35:48.274Z,11.10
2018-11-05T07:38:17.561Z,11.10
2018-11-05T07:40:47.340Z,11.10
2018-11-05T07:43:16.441Z,11.20
2018-11-05T07:45:46.114Z,11.20
2018-11-05T07:48:15.629Z,11.20
2018-11-05T07:50:45.870Z,11.20
2018-11-05T07:53:16.064Z,11.30
2018-11-05T07:55:45.732Z,11.30
2018-11-05T07:58:14.989Z,11.30
2018-11-05T08:00:51.194Z,11.30
2018-11-05T08:03:20.875Z,11.30
2018-11-05T08:05:50.627Z,11.40
2018-11-05T08:08:20.056Z,11.30
2018-11-05T08:10:49.650Z,11.30
2018-11-05T08:13:19.024Z,11.30
2018-11-05T08:15:48.819Z,11.30
2018-11-05T08:18:18.375Z,11.30
2018-11-05T08:20:48.003Z,11.30
2018-11-05T08:23:17.532Z,11.30
2018-11-05T08:25:47.052Z,11.30
2018-11-05T08:28:18.358Z,11.30
2018-11-05T08:30:48.840Z,11.40
2018-11-05T08:33:17.994Z,11.40
2018-11-05T08:35:48.100Z,11.40
2018-11-05T08:38:18.267Z,11.50
2018-11-05T08:40:47.847Z,11.50
2018-11-05T08:43:17.656Z,11.60
2018-11-05T08:45:48.129Z,11.60
2018-11-05T08:48:17.751Z,11.60
2018-11-05T08:50:47.462Z,11.60
2018-11-05T08:53:17.426Z,11.60
2018-11-05T08:55:47.048Z,11.70
2018-11-05T08:58:16.792Z,11.70
2018-11-05T09:00:48.720Z,11.70
2018-11-05T09:03:18.155Z,11.60
2018-11-05T09:05:47.830Z,11.70
2018-11-05T09:08:17.370Z,11.70
2018-11-05T09:10:47.768Z,11.70
2018-11-05T09:13:18.598Z,11.70
2018-11-05T09:15:47.508Z,11.70
2018-11-05T09:18:17.438Z,11.80
2018-11-05T09:20:47.405Z,11.80
2018-11-05T09:23:16.996Z,11.80
2018-11-05T09:25:46.671Z,11.80
2018-11-05T09:28:16.299Z,11.80
2018-11-05T09:30:46.140Z,11.80
2018-11-05T09:33:16.472Z,11.90
2018-11-05T09:35:45.721Z,11.90
2018-11-05T09:38:15.084Z,11.90
2018-11-05T09:40:44.680Z,11.90
2018-11-05T09:43:14.440Z,12.00
2018-11-05T09:45:44.059Z,12.10
2018-11-05T09:48:13.349Z,12.10
2018-11-05T09:50:43.319Z,12.20
2018-11-05T09:53:12.511Z,12.20
2018-11-05T09:55:42.398Z,12.20
2018-11-05T09:58:12.428Z,12.20
2018-11-05T10:00:42.035Z,12.20
2018-11-05T10:03:15.046Z,12.30
2018-11-05T10:05:45.661Z,12.30
2018-11-05T10:08:15.963Z,12.30
2018-11-05T10:10:45.956Z,12.30
2018-11-05T10:13:14.926Z,12.30
2018-11-05T10:15:44.537Z,12.30
2018-11-05T10:18:13.535Z,12.40
2018-11-05T10:20:43.361Z,12.40
2018-11-05T10:23:12.443Z,12.40
2018-11-05T10:25:41.948Z,12.50
2018-11-05T10:28:11.389Z,12.50
2018-11-05T10:30:41.616Z,12.60
2018-11-05T10:33:10.769Z,12.70
2018-11-05T10:35:45.338Z,12.70
2018-11-05T10:38:14.692Z,12.70
2018-11-05T10:40:43.994Z,12.80
2018-11-05T10:43:13.262Z,12.80
2018-11-05T10:45:43.144Z,12.80
2018-11-05T10:48:12.397Z,12.80
2018-11-05T10:50:42.757Z,12.80
2018-11-05T10:53:12.613Z,12.80
2018-11-05T10:55:42.788Z,12.80
2018-11-05T10:58:11.976Z,12.70
2018-11-05T11:00:48.082Z,12.70
2018-11-05T11:03:21.255Z,12.80
2018-11-05T11:05:59.952Z,12.80
2018-11-05T11:08:37.654Z,12.80
2018-11-05T11:11:07.737Z,12.90
2018-11-05T11:13:37.735Z,13.00
2018-11-05T11:16:07.520Z,13.00
2018-11-05T11:18:36.877Z,13.00
2018-11-05T11:21:14.280Z,13.00
2018-11-05T11:23:47.831Z,13.00
2018-11-05T11:26:20.336Z,13.00
2018-11-05T11:28:52.475Z,13.10
2018-11-05T11:31:25.317Z,13.00
2018-11-05T11:34:01.349Z,13.00
2018-11-05T11:36:31.307Z,13.10
2018-11-05T11:39:02.233Z,13.00
2018-11-05T11:41:32.355Z,13.10
2018-11-05T11:44:02.451Z,13.10
2018-11-05T11:46:40.623Z,13.10
2018-11-05T11:49:13.572Z,13.10
2018-11-05T11:51:43.776Z,13.10
2018-11-05T11:54:13.502Z,13.10
2018-11-05T11:56:43.116Z,13.10
2018-11-05T11:59:12.880Z,13.10
2018-11-05T12:01:48.128Z,13.20
2018-11-05T12:04:18.221Z,13.20
2018-11-05T12:06:48.643Z,13.20
2018-11-05T12:09:21.401Z,13.20
2018-11-05T12:11:50.553Z,13.20
2018-11-05T12:14:20.197Z,13.20
2018-11-05T12:16:50.138Z,13.30
2018-11-05T12:19:19.715Z,13.30
2018-11-05T12:21:49.398Z,13.30
2018-11-05T12:24:18.662Z,13.30
2018-11-05T12:26:47.929Z,13.40
2018-11-05T12:29:17.580Z,13.40
2018-11-05T12:31:46.996Z,13.40
2018-11-05T12:34:17.143Z,13.50
2018-11-05T12:36:47.559Z,13.40
2018-11-05T12:39:17.050Z,13.50
2018-11-05T12:41:46.774Z,13.50
2018-11-05T12:44:16.523Z,13.50
2018-11-05T12:46:45.901Z,13.50
2018-11-05T12:49:15.327Z,13.50
2018-11-05T12:51:45.178Z,13.50
2018-11-05T12:54:14.672Z,13.50
2018-11-05T12:56:44.649Z,13.50
2018-11-05T12:59:13.923Z,13.60
2018-11-05T13:01:47.484Z,13.60
2018-11-05T13:04:19.080Z,13.60
2018-11-05T13:06:48.363Z,13.70
2018-11-05T13:09:18.252Z,13.80
2018-11-05T13:11:47.242Z,13.80
2018-11-05T13:14:16.997Z,13.90
2018-11-05T13:16:47.530Z,14.00
2018-11-05T13:19:16.868Z,14.00
2018-11-05T13:21:46.411Z,14.10
2018-11-05T13:24:16.202Z,14.10
2018-11-05T13:26:46.315Z,14.10
2018-11-05T13:29:15.991Z,14.20
2018-11-05T13:31:45.899Z,14.20
2018-11-05T13:34:15.753Z,14.20
2018-11-05T13:36:52.024Z,14.30
2018-11-05T13:39:24.876Z,14.30
2018-11-05T13:41:55.066Z,14.40
2018-11-05T13:44:24.393Z,14.40
2018-11-05T13:46:54.500Z,14.50
2018-11-05T13:49:25.223Z,14.50
2018-11-05T13:51:54.825Z,14.50
2018-11-05T13:54:24.721Z,14.60
2018-11-05T13:56:53.634Z,14.60
2018-11-05T13:59:22.520Z,14.60
2018-11-05T14:01:52.424Z,14.60
2018-11-05T14:04:21.996Z,14.70
2018-11-05T14:06:51.799Z,14.70
2018-11-05T14:09:21.396Z,14.70
2018-11-05T14:11:52.431Z,14.70
2018-11-05T14:14:22.411Z,14.60
2018-11-05T14:16:51.875Z,14.60
2018-11-05T14:19:21.674Z,14.60
2018-11-05T14:21:51.461Z,14.60
2018-11-05T14:24:21.690Z,14.70
2018-11-05T14:26:51.100Z,14.70
2018-11-05T14:29:21.016Z,14.70
2018-11-05T14:31:50.757Z,14.60
2018-11-05T14:34:21.146Z,14.60
2018-11-05T14:36:50.517Z,14.60
2018-11-05T14:39:20.191Z,14.60
2018-11-05T14:41:49.728Z,14.60
2018-11-05T14:44:19.478Z,14.60
2018-11-05T14:46:49.079Z,14.60
2018-11-05T14:49:19.925Z,14.50
2018-11-05T14:51:49.490Z,14.40
2018-11-05T14:54:19.785Z,14.30
2018-11-05T14:56:50.176Z,14.30
2018-11-05T14:59:20.392Z,14.20
2018-11-05T15:01:53.779Z,14.10
2018-11-05T15:04:23.481Z,14.10
2018-11-05T15:06:52.847Z,14.00
2018-11-05T15:09:22.591Z,13.90
2018-11-05T15:11:51.520Z,13.90
2018-11-05T15:14:20.412Z,13.80
2018-11-05T15:16:50.335Z,13.70
2018-11-05T15:19:19.747Z,13.70
2018-11-05T15:21:49.012Z,13.60
2018-11-05T15:24:18.385Z,13.60
2018-11-05T15:26:47.657Z,13.50
2018-11-05T15:29:16.598Z,13.40
2018-11-05T15:31:47.490Z,13.30
2018-11-05T15:34:18.044Z,13.20
2018-11-05T15:36:47.107Z,13.10
2018-11-05T15:39:16.622Z,13.10
2018-11-05T15:41:46.384Z,13.00
2018-11-05T15:44:16.580Z,12.90
2018-11-05T15:46:46.091Z,12.90
2018-11-05T15:49:19.484Z,12.80
2018-11-05T15:51:49.226Z,12.70
2018-11-05T15:54:18.767Z,12.60
2018-11-05T15:56:48.600Z,12.60
2018-11-05T15:59:18.641Z,12.50
2018-11-05T16:01:48.608Z,12.40
2018-11-05T16:04:19.034Z,12.30
2018-11-05T16:06:49.529Z,12.30
2018-11-05T16:09:22.363Z,12.20
2018-11-05T16:11:55.537Z,12.10
2018-11-05T16:14:26.897Z,12.10
2018-11-05T16:16:59.997Z,12.00
2018-11-05T16:19:31.355Z,12.00
2018-11-05T16:22:01.517Z,11.90
2018-11-05T16:24:30.911Z,11.90
2018-11-05T16:27:00.304Z,11.80
2018-11-05T16:29:30.283Z,11.80
2018-11-05T16:32:00.358Z,11.70
2018-11-05T16:34:29.558Z,11.60
2018-11-05T16:36:59.547Z,11.60
2018-11-05T16:39:29.346Z,11.50
2018-11-05T16:41:58.592Z,11.40
2018-11-05T16:44:28.797Z,11.40
2018-11-05T16:46:58.470Z,11.30
2018-11-05T16:49:28.386Z,11.20
2018-11-05T16:51:57.807Z,11.20
2018-11-05T16:54:27.857Z,11.10
2018-11-05T16:56:57.063Z,11.10
2018-11-05T16:59:26.751Z,11.00
2018-11-05T17:02:01.589Z,11.00
2018-11-05T17:04:35.173Z,10.90
2018-11-05T17:07:05.292Z,10.90
2018-11-05T17:09:34.741Z,10.80
2018-11-05T17:12:04.701Z,10.70
2018-11-05T17:14:34.833Z,10.70
2018-11-05T17:17:04.543Z,10.60
2018-11-05T17:19:34.200Z,10.50
2018-11-05T17:22:05.561Z,10.50
2018-11-05T17:24:36.037Z,10.50
2018-11-05T17:27:07.361Z,10.40
2018-11-05T17:29:38.942Z,10.50
2018-11-05T17:32:11.691Z,10.50
2018-11-05T17:34:44.362Z,10.40
2018-11-05T17:37:16.810Z,10.40
2018-11-05T17:39:47.375Z,10.30
2018-11-05T17:42:20.472Z,10.20
2018-11-05T17:44:51.912Z,10.20
2018-11-05T17:47:22.831Z,10.10
2018-11-05T17:49:52.591Z,10.00
2018-11-05T17:52:23.842Z,9.90
2018-11-05T17:54:56.000Z,9.90
2018-11-05T17:57:25.516Z,9.90
2018-11-05T17:59:56.053Z,9.90
2018-11-05T18:02:26.381Z,9.80
2018-11-05T18:04:57.862Z,9.80
2018-11-05T18:07:28.622Z,9.70
2018-11-05T18:09:59.739Z,9.70
2018-11-05T18:12:29.709Z,9.60
2018-11-05T18:15:00.921Z,9.50
2018-11-05T18:17:31.632Z,9.50
2018-11-05T18:20:02.963Z,9.40
2018-11-05T18:22:32.654Z,9.40
2018-11-05T18:25:02.484Z,9.30
2018-11-05T18:27:32.182Z,9.30
2018-11-05T18:30:02.361Z,9.20
2018-11-05T18:32:32.338Z,9.20
2018-11-05T18:35:02.024Z,9.10
2018-11-05T18:37:32.429Z,9.10
2018-11-05T18:40:02.578Z,9.10
2018-11-05T18:42:32.894Z,9.10
2018-11-05T18:45:03.371Z,9.00
2018-11-05T18:47:33.440Z,9.00
2018-11-05T18:50:03.496Z,9.00
2018-11-05T18:52:35.835Z,8.90
2018-11-05T18:55:07.275Z,8.90
2018-11-05T18:57:38.089Z,8.80
2018-11-05T19:00:17.257Z,8.80
2018-11-05T19:02:47.793Z,8.80
2018-11-05T19:05:18.566Z,8.70
2018-11-05T19:07:49.296Z,8.70
2018-11-05T19:10:19.884Z,8.70
2018-11-05T19:12:50.986Z,8.60
2018-11-05T19:15:21.242Z,8.60
2018-11-05T19:17:52.048Z,8.60
2018-11-05T19:20:22.424Z,8.60
2018-11-05T19:22:52.654Z,8.50
2018-11-05T19:25:22.942Z,8.50
2018-11-05T19:27:53.178Z,8.40
2018-11-05T19:30:29.417Z,8.40
2018-11-05T19:32:59.569Z,8.30
2018-11-05T19:35:30.896Z,8.30
2018-11-05T19:38:01.089Z,8.30
2018-11-05T19:40:31.011Z,8.30
2018-11-05T19:43:01.236Z,8.30
2018-11-05T19:45:31.024Z,8.20
2018-11-05T19:48:02.698Z,8.20
2018-11-05T19:50:32.939Z,8.20
2018-11-05T19:53:03.118Z,8.10
2018-11-05T19:55:33.105Z,8.10
2018-11-05T19:58:03.555Z,8.00
2018-11-05T20:00:33.686Z,8.00
2018-11-05T20:03:04.027Z,7.90
2018-11-05T20:05:34.042Z,7.90
2018-11-05T20:08:04.157Z,7.90
2018-11-05T20:10:34.421Z,7.80
2018-11-05T20:13:04.616Z,7.80
2018-11-05T20:15:34.887Z,7.80
2018-11-05T20:18:05.084Z,7.80
2018-11-05T20:20:35.907Z,7.70
2018-11-05T20:23:05.857Z,7.70
2018-11-05T20:25:35.806Z,7.70
2018-11-05T20:28:06.228Z,7.70
2018-11-05T20:30:36.456Z,7.70
2018-11-05T20:33:06.509Z,7.70
2018-11-05T20:35:36.623Z,7.70
2018-11-05T20:38:06.845Z,7.70
2018-11-05T20:40:36.863Z,7.70
2018-11-05T20:43:07.185Z,7.60
2018-11-05T20:45:37.201Z,7.60
2018-11-05T20:48:07.623Z,7.60
2018-11-05T20:50:37.589Z,7.60
2018-11-05T20:53:07.699Z,7.60
2018-11-05T20:55:37.960Z,7.60
2018-11-05T20:58:07.946Z,7.60
2018-11-05T21:00:37.696Z,7.50
2018-11-05T21:03:07.477Z,7.60
2018-11-05T21:05:37.274Z,7.50
2018-11-05T21:08:07.369Z,7.50
2018-11-05T21:10:37.784Z,7.50
2018-11-05T21:13:08.003Z,7.50
2018-11-05T21:15:37.967Z,7.50
2018-11-05T21:18:09.887Z,7.40
2018-11-05T21:20:40.601Z,7.40
2018-11-05T21:23:10.512Z,7.40
2018-11-05T21:25:40.763Z,7.30
2018-11-05T21:28:10.865Z,7.30
2018-11-05T21:30:41.262Z,7.20
2018-11-05T21:33:12.985Z,7.20
2018-11-05T21:35:42.596Z,7.20
2018-11-05T21:38:12.987Z,7.20
2018-11-05T21:40:44.828Z,7.20
2018-11-05T21:43:15.040Z,7.20
2018-11-05T21:45:46.693Z,7.20
2018-11-05T21:48:17.041Z,7.20
2018-11-05T21:50:47.428Z,7.20
2018-11-05T21:53:17.703Z,7.20
2018-11-05T21:58:23.707Z,7.20
2018-11-05T22:00:54.457Z,7.20
2018-11-05T22:03:25.647Z,7.20
2018-11-05T22:05:56.488Z,7.20
2018-11-05T22:08:27.216Z,7.30
2018-11-05T22:10:57.560Z,7.30
2018-11-05T22:13:29.868Z,7.30
2018-11-05T22:16:00.223Z,7.20
2018-11-05T22:18:30.460Z,7.20
2018-11-05T22:21:01.358Z,7.20
2018-11-05T22:23:32.278Z,7.10
2018-11-05T22:26:01.968Z,7.10
2018-11-05T22:28:31.894Z,7.10
2018-11-05T22:31:03.291Z,7.10
2018-11-05T22:33:56.903Z,7.10
2018-11-05T22:36:26.873Z,7.10
2018-11-05T22:38:58.327Z,7.10
2018-11-05T22:41:29.691Z,7.10
2018-11-05T22:43:59.807Z,7.00
2018-11-05T22:46:30.653Z,7.00
2018-11-05T22:49:00.901Z,7.10
2018-11-05T22:51:32.508Z,7.10
2018-11-05T22:54:04.538Z,7.00
2018-11-05T22:56:35.166Z,7.00
2018-11-05T22:59:05.208Z,6.90
2018-11-05T23:01:40.601Z,6.90
2018-11-05T23:04:10.840Z,6.80
2018-11-05T23:06:41.111Z,6.80
2018-11-05T23:09:11.932Z,6.80
2018-11-05T23:11:41.855Z,6.70
2018-11-05T23:14:12.868Z,6.80
2018-11-05T23:16:42.644Z,6.70
2018-11-05T23:19:13.003Z,6.70
2018-11-05T23:21:43.497Z,6.70
2018-11-05T23:24:14.405Z,6.70
2018-11-05T23:26:44.100Z,6.60
2018-11-05T23:29:15.409Z,6.60
2018-11-05T23:31:45.337Z,6.60
2018-11-05T23:34:15.131Z,6.60
2018-11-05T23:36:45.500Z,6.60
2018-11-05T23:39:16.685Z,6.60
2018-11-05T23:41:46.984Z,6.60
2018-11-05T23:44:18.263Z,6.60
2018-11-05T23:46:49.559Z,6.60
2018-11-05T23:49:20.952Z,6.70
2018-11-05T23:51:51.265Z,6.70
2018-11-05T23:54:21.175Z,6.70
2018-11-05T23:56:52.339Z,6.70
2018-11-05T23:59:22.299Z,6.70
